sensor_id;sensor_type;location;lat;lon;timestamp;temperature;humidity
1728;DHT22;861;48.808;9.006;2022-10-16T00:01:42;17.00;99.90
1728;DHT22;861;48.808;9.006;2022-10-16T00:06:36;17.30;99.90
1728;DHT22;861;48.808;9.006;2022-10-16T00:09:02;17.30;99.90
1728;DHT22;861;48.808;9.006;2022-10-16T00:14:14;17.00;99.90
1728;DHT22;861;48.808;9.006;2022-10-16T00:16:42;17.00;99.90
1728;DHT22;861;48.808;9.006;2022-10-16T00:19:10;16.90;99.90
1728;DHT22;861;48.808;9.006;2022-10-16T00:24:08;16.80;99.90
1728;DHT22;861;48.808;9.006;2022-10-16T00:26:38;16.90;99.90
1728;DHT22;861;48.808;9.006;2022-10-16T00:29:06;17.30;99.90
1728;DHT22;861;48.808;9.006;2022-10-16T00:34:00;17.60;99.90
1728;DHT22;861;48.808;9.006;2022-10-16T00:36:27;16.90;99.90
1728;DHT22;861;48.808;9.006;2022-10-16T00:38:58;16.30;99.90
1728;DHT22;861;48.808;9.006;2022-10-16T00:41:27;16.90;99.90
1728;DHT22;861;48.808;9.006;2022-10-16T00:46:35;16.90;99.90
1728;DHT22;861;48.808;9.006;2022-10-16T00:49:20;16.90;99.90
1728;DHT22;861;48.808;9.006;2022-10-16T00:51:51;16.80;99.90
1728;DHT22;861;48.808;9.006;2022-10-16T00:54:31;16.90;99.90
1728;DHT22;861;48.808;9.006;2022-10-16T01:02:11;16.70;99.90
1728;DHT22;861;48.808;9.006;2022-10-16T01:04:51;16.60;99.90
1728;DHT22;861;48.808;9.006;2022-10-16T01:11:05;16.70;99.90
1728;DHT22;861;48.808;9.006;2022-10-16T01:13:56;16.80;99.90
1728;DHT22;861;48.808;9.006;2022-10-16T01:16:46;16.70;99.90
1728;DHT22;861;48.808;9.006;2022-10-16T01:23:16;16.50;99.90
1728;DHT22;861;48.808;9.006;2022-10-16T01:28:58;16.40;99.90
1728;DHT22;861;48.808;9.006;2022-10-16T01:34:32;17.60;99.90
1728;DHT22;861;48.808;9.006;2022-10-16T01:37:13;16.60;99.90
1728;DHT22;861;48.808;9.006;2022-10-16T01:39:50;16.70;99.90
1728;DHT22;861;48.808;9.006;2022-10-16T01:42:35;17.00;99.90
1728;DHT22;861;48.808;9.006;2022-10-16T01:50:18;16.60;99.90
1728;DHT22;861;48.808;9.006;2022-10-16T01:52:51;16.70;99.90
1728;DHT22;861;48.808;9.006;2022-10-16T01:55:34;16.80;99.90
1728;DHT22;861;48.808;9.006;2022-10-16T02:00:45;17.50;99.90
1728;DHT22;861;48.808;9.006;2022-10-16T02:05:56;16.60;99.90
1728;DHT22;861;48.808;9.006;2022-10-16T02:10:58;16.70;99.90
1728;DHT22;861;48.808;9.006;2022-10-16T02:16:15;16.80;99.90
1728;DHT22;861;48.808;9.006;2022-10-16T02:18:43;16.20;99.90
1728;DHT22;861;48.808;9.006;2022-10-16T02:21:28;16.60;99.90
1728;DHT22;861;48.808;9.006;2022-10-16T02:27:49;16.50;99.90
1728;DHT22;861;48.808;9.006;2022-10-16T02:33:11;16.40;99.90
1728;DHT22;861;48.808;9.006;2022-10-16T02:38:20;16.40;99.90
1728;DHT22;861;48.808;9.006;2022-10-16T02:40:49;16.50;99.90
1728;DHT22;861;48.808;9.006;2022-10-16T02:43:16;16.60;99.90
1728;DHT22;861;48.808;9.006;2022-10-16T02:45:43;16.40;99.90
1728;DHT22;861;48.808;9.006;2022-10-16T02:48:09;16.70;99.90
1728;DHT22;861;48.808;9.006;2022-10-16T02:50:35;16.30;99.90
1728;DHT22;861;48.808;9.006;2022-10-16T02:53:02;16.30;99.90
1728;DHT22;861;48.808;9.006;2022-10-16T02:55:28;16.40;99.90
1728;DHT22;861;48.808;9.006;2022-10-16T02:57:55;16.40;99.90
1728;DHT22;861;48.808;9.006;2022-10-16T03:00:21;16.50;99.90
1728;DHT22;861;48.808;9.006;2022-10-16T03:05:15;16.40;99.90
1728;DHT22;861;48.808;9.006;2022-10-16T03:07:41;16.40;99.90
1728;DHT22;861;48.808;9.006;2022-10-16T03:10:08;16.60;99.90
1728;DHT22;861;48.808;9.006;2022-10-16T03:12:34;16.60;99.90
1728;DHT22;861;48.808;9.006;2022-10-16T03:15:01;16.70;99.90
1728;DHT22;861;48.808;9.006;2022-10-16T03:17:28;16.60;99.90
1728;DHT22;861;48.808;9.006;2022-10-16T03:19:54;16.60;99.90
1728;DHT22;861;48.808;9.006;2022-10-16T03:22:20;15.50;99.90
1728;DHT22;861;48.808;9.006;2022-10-16T03:24:46;16.50;99.90
1728;DHT22;861;48.808;9.006;2022-10-16T03:27:12;16.90;99.90
1728;DHT22;861;48.808;9.006;2022-10-16T03:29:38;16.70;99.90
1728;DHT22;861;48.808;9.006;2022-10-16T03:32:04;16.50;99.90
1728;DHT22;861;48.808;9.006;2022-10-16T03:36:57;16.50;99.90
1728;DHT22;861;48.808;9.006;2022-10-16T03:39:23;16.60;99.90
1728;DHT22;861;48.808;9.006;2022-10-16T03:41:49;16.50;99.90
1728;DHT22;861;48.808;9.006;2022-10-16T03:44:15;16.50;99.90
1728;DHT22;861;48.808;9.006;2022-10-16T03:46:42;13.00;99.90
1728;DHT22;861;48.808;9.006;2022-10-16T03:51:34;16.40;99.90
1728;DHT22;861;48.808;9.006;2022-10-16T03:54:01;16.20;99.90
1728;DHT22;861;48.808;9.006;2022-10-16T03:58:53;16.50;99.90
1728;DHT22;861;48.808;9.006;2022-10-16T04:01:20;16.10;99.90
1728;DHT22;861;48.808;9.006;2022-10-16T04:03:46;16.20;99.90
1728;DHT22;861;48.808;9.006;2022-10-16T04:08:39;16.30;99.90
1728;DHT22;861;48.808;9.006;2022-10-16T04:13:35;15.40;99.90
1728;DHT22;861;48.808;9.006;2022-10-16T04:16:01;16.30;99.90
1728;DHT22;861;48.808;9.006;2022-10-16T04:18:28;16.60;99.90
1728;DHT22;861;48.808;9.006;2022-10-16T04:20:54;16.20;99.90
1728;DHT22;861;48.808;9.006;2022-10-16T04:23:21;16.00;99.90
1728;DHT22;861;48.808;9.006;2022-10-16T04:25:48;16.00;99.90
1728;DHT22;861;48.808;9.006;2022-10-16T04:28:15;15.30;99.90
1728;DHT22;861;48.808;9.006;2022-10-16T04:30:41;15.90;99.90
1728;DHT22;861;48.808;9.006;2022-10-16T04:33:09;16.20;99.90
1728;DHT22;861;48.808;9.006;2022-10-16T04:40:08;16.40;99.90
1728;DHT22;861;48.808;9.006;2022-10-16T04:42:34;15.80;99.90
1728;DHT22;861;48.808;9.006;2022-10-16T04:45:00;16.40;99.90
1728;DHT22;861;48.808;9.006;2022-10-16T04:47:26;16.00;99.90
1728;DHT22;861;48.808;9.006;2022-10-16T04:49:53;16.20;99.90
1728;DHT22;861;48.808;9.006;2022-10-16T04:52:19;16.20;99.90
1728;DHT22;861;48.808;9.006;2022-10-16T04:54:47;15.40;99.90
1728;DHT22;861;48.808;9.006;2022-10-16T04:57:13;16.20;99.90
1728;DHT22;861;48.808;9.006;2022-10-16T04:59:39;15.80;99.90
1728;DHT22;861;48.808;9.006;2022-10-16T05:02:05;16.30;99.90
1728;DHT22;861;48.808;9.006;2022-10-16T05:04:31;16.30;99.90
1728;DHT22;861;48.808;9.006;2022-10-16T05:06:57;15.70;99.90
1728;DHT22;861;48.808;9.006;2022-10-16T05:09:24;16.50;99.90
1728;DHT22;861;48.808;9.006;2022-10-16T05:11:50;16.00;99.90
1728;DHT22;861;48.808;9.006;2022-10-16T05:16:25;16.40;99.90
1728;DHT22;861;48.808;9.006;2022-10-16T05:18:52;16.00;99.90
1728;DHT22;861;48.808;9.006;2022-10-16T05:23:47;15.90;99.90
1728;DHT22;861;48.808;9.006;2022-10-16T05:26:14;15.90;99.90
1728;DHT22;861;48.808;9.006;2022-10-16T05:28:40;15.80;99.90
1728;DHT22;861;48.808;9.006;2022-10-16T05:33:36;15.90;99.90
1728;DHT22;861;48.808;9.006;2022-10-16T05:41:05;17.00;99.90
1728;DHT22;861;48.808;9.006;2022-10-16T05:46:04;16.00;99.90
1728;DHT22;861;48.808;9.006;2022-10-16T05:48:32;16.40;99.90
1728;DHT22;861;48.808;9.006;2022-10-16T05:51:03;16.60;99.90
1728;DHT22;861;48.808;9.006;2022-10-16T05:53:37;16.40;99.90
1728;DHT22;861;48.808;9.006;2022-10-16T05:58:38;16.30;99.90
1728;DHT22;861;48.808;9.006;2022-10-16T06:01:16;16.20;99.90
1728;DHT22;861;48.808;9.006;2022-10-16T06:03:46;16.20;99.90
1728;DHT22;861;48.808;9.006;2022-10-16T06:06:18;16.70;99.90
1728;DHT22;861;48.808;9.006;2022-10-16T06:08:53;16.30;99.90
1728;DHT22;861;48.808;9.006;2022-10-16T06:11:25;15.80;99.90
1728;DHT22;861;48.808;9.006;2022-10-16T06:16:29;17.00;99.90
1728;DHT22;861;48.808;9.006;2022-10-16T06:18:56;16.20;99.90
1728;DHT22;861;48.808;9.006;2022-10-16T06:21:26;15.90;99.90
1728;DHT22;861;48.808;9.006;2022-10-16T06:23:56;16.80;99.90
1728;DHT22;861;48.808;9.006;2022-10-16T06:26:28;16.40;99.90
1728;DHT22;861;48.808;9.006;2022-10-16T06:28:58;16.10;99.90
1728;DHT22;861;48.808;9.006;2022-10-16T06:31:27;16.40;99.90
1728;DHT22;861;48.808;9.006;2022-10-16T06:33:57;16.40;99.90
1728;DHT22;861;48.808;9.006;2022-10-16T06:38:53;16.50;99.90
1728;DHT22;861;48.808;9.006;2022-10-16T06:41:22;16.10;99.90
1728;DHT22;861;48.808;9.006;2022-10-16T06:43:49;16.40;99.90
1728;DHT22;861;48.808;9.006;2022-10-16T06:46:22;16.50;99.90
1728;DHT22;861;48.808;9.006;2022-10-16T06:48:50;15.70;99.90
1728;DHT22;861;48.808;9.006;2022-10-16T06:51:20;16.50;99.90
1728;DHT22;861;48.808;9.006;2022-10-16T06:53:52;17.00;99.90
1728;DHT22;861;48.808;9.006;2022-10-16T06:56:28;16.50;99.90
1728;DHT22;861;48.808;9.006;2022-10-16T07:01:25;16.60;99.90
1728;DHT22;861;48.808;9.006;2022-10-16T07:03:53;16.70;99.90
1728;DHT22;861;48.808;9.006;2022-10-16T07:08:51;16.30;99.90
1728;DHT22;861;48.808;9.006;2022-10-16T07:11:22;16.40;99.90
1728;DHT22;861;48.808;9.006;2022-10-16T07:13:50;16.40;99.90
1728;DHT22;861;48.808;9.006;2022-10-16T07:16:21;16.50;99.90
1728;DHT22;861;48.808;9.006;2022-10-16T07:18:50;16.50;99.90
1728;DHT22;861;48.808;9.006;2022-10-16T07:26:29;16.70;99.90
1728;DHT22;861;48.808;9.006;2022-10-16T07:28:58;16.80;99.90
1728;DHT22;861;48.808;9.006;2022-10-16T07:33:52;16.70;99.90
1728;DHT22;861;48.808;9.006;2022-10-16T07:36:21;16.80;99.90
1728;DHT22;861;48.808;9.006;2022-10-16T07:38:47;16.80;99.90
1728;DHT22;861;48.808;9.006;2022-10-16T07:41:17;16.90;99.90
1728;DHT22;861;48.808;9.006;2022-10-16T07:43:53;16.90;99.90
1728;DHT22;861;48.808;9.006;2022-10-16T07:46:22;16.00;99.90
1728;DHT22;861;48.808;9.006;2022-10-16T07:48:49;17.10;99.90
1728;DHT22;861;48.808;9.006;2022-10-16T07:51:20;17.10;99.90
1728;DHT22;861;48.808;9.006;2022-10-16T07:53:49;17.10;99.90
1728;DHT22;861;48.808;9.006;2022-10-16T07:58:47;17.70;99.90
1728;DHT22;861;48.808;9.006;2022-10-16T08:03:52;17.50;99.90
1728;DHT22;861;48.808;9.006;2022-10-16T08:06:21;17.20;99.90
1728;DHT22;861;48.808;9.006;2022-10-16T08:11:15;17.60;99.90
1728;DHT22;861;48.808;9.006;2022-10-16T08:13:42;17.70;99.90
1728;DHT22;861;48.808;9.006;2022-10-16T08:16:08;17.40;99.90
1728;DHT22;861;48.808;9.006;2022-10-16T08:18:38;18.00;99.90
1728;DHT22;861;48.808;9.006;2022-10-16T08:21:13;17.80;99.90
1728;DHT22;861;48.808;9.006;2022-10-16T08:23:42;18.00;99.90
1728;DHT22;861;48.808;9.006;2022-10-16T08:28:38;18.10;99.90
1728;DHT22;861;48.808;9.006;2022-10-16T08:31:15;18.20;99.90
1728;DHT22;861;48.808;9.006;2022-10-16T08:33:44;18.20;99.90
1728;DHT22;861;48.808;9.006;2022-10-16T08:38:42;18.00;99.90
1728;DHT22;861;48.808;9.006;2022-10-16T08:50:29;18.30;99.90
1728;DHT22;861;48.808;9.006;2022-10-16T08:52:59;18.30;99.90
1728;DHT22;861;48.808;9.006;2022-10-16T08:58:35;17.80;99.90
1728;DHT22;861;48.808;9.006;2022-10-16T09:01:14;18.30;99.90
1728;DHT22;861;48.808;9.006;2022-10-16T09:06:58;18.40;99.90
1728;DHT22;861;48.808;9.006;2022-10-16T09:13:12;18.70;99.90
1728;DHT22;861;48.808;9.006;2022-10-16T09:21:45;18.90;99.90
1728;DHT22;861;48.808;9.006;2022-10-16T09:24:21;18.70;99.90
1728;DHT22;861;48.808;9.006;2022-10-16T09:26:51;18.80;99.90
1728;DHT22;861;48.808;9.006;2022-10-16T09:31:53;19.20;99.90
1728;DHT22;861;48.808;9.006;2022-10-16T09:34:36;19.10;99.90
1728;DHT22;861;48.808;9.006;2022-10-16T09:37:14;18.90;99.90
1728;DHT22;861;48.808;9.006;2022-10-16T09:39:52;19.00;99.90
1728;DHT22;861;48.808;9.006;2022-10-16T09:42:31;19.00;99.90
1728;DHT22;861;48.808;9.006;2022-10-16T09:45:04;19.00;99.90
1728;DHT22;861;48.808;9.006;2022-10-16T09:47:32;19.50;99.90
1728;DHT22;861;48.808;9.006;2022-10-16T16:13:39;22.70;99.90
1728;DHT22;861;48.808;9.006;2022-10-16T16:16:09;22.60;99.90
1728;DHT22;861;48.808;9.006;2022-10-16T16:18:40;22.50;99.90
1728;DHT22;861;48.808;9.006;2022-10-16T16:21:10;22.50;99.90
1728;DHT22;861;48.808;9.006;2022-10-16T16:23:38;22.40;99.90
1728;DHT22;861;48.808;9.006;2022-10-16T16:26:29;22.30;99.90
1728;DHT22;861;48.808;9.006;2022-10-16T16:29:03;22.40;99.90
1728;DHT22;861;48.808;9.006;2022-10-16T16:31:32;22.20;99.90
1728;DHT22;861;48.808;9.006;2022-10-16T16:33:59;22.10;99.90
1728;DHT22;861;48.808;9.006;2022-10-16T16:36:26;22.00;99.90
1728;DHT22;861;48.808;9.006;2022-10-16T16:38:52;22.00;99.90
1728;DHT22;861;48.808;9.006;2022-10-16T16:41:25;21.90;99.90
1728;DHT22;861;48.808;9.006;2022-10-16T16:43:55;21.90;99.90
1728;DHT22;861;48.808;9.006;2022-10-16T16:46:27;21.80;99.90
1728;DHT22;861;48.808;9.006;2022-10-16T16:48:53;21.80;99.90
1728;DHT22;861;48.808;9.006;2022-10-16T16:51:21;21.80;99.90
1728;DHT22;861;48.808;9.006;2022-10-16T16:53:51;21.90;99.90
1728;DHT22;861;48.808;9.006;2022-10-16T16:56:23;21.70;99.90
1728;DHT22;861;48.808;9.006;2022-10-16T16:58:54;21.70;99.90
1728;DHT22;861;48.808;9.006;2022-10-16T17:01:25;21.50;99.90
1728;DHT22;861;48.808;9.006;2022-10-16T17:06:28;21.30;99.90
1728;DHT22;861;48.808;9.006;2022-10-16T17:08:58;21.20;99.90
1728;DHT22;861;48.808;9.006;2022-10-16T17:11:28;21.10;99.90
1728;DHT22;861;48.808;9.006;2022-10-16T17:13:58;21.20;99.90
1728;DHT22;861;48.808;9.006;2022-10-16T17:16:31;21.00;99.90
1728;DHT22;861;48.808;9.006;2022-10-16T17:19:06;21.10;99.90
1728;DHT22;861;48.808;9.006;2022-10-16T17:21:36;21.10;99.90
1728;DHT22;861;48.808;9.006;2022-10-16T17:24:05;21.00;99.90
1728;DHT22;861;48.808;9.006;2022-10-16T17:26:32;21.00;99.90
1728;DHT22;861;48.808;9.006;2022-10-16T17:29:04;20.80;99.90
1728;DHT22;861;48.808;9.006;2022-10-16T17:31:33;20.70;99.90
1728;DHT22;861;48.808;9.006;2022-10-16T17:34:05;20.70;99.90
1728;DHT22;861;48.808;9.006;2022-10-16T17:36:37;20.50;99.90
1728;DHT22;861;48.808;9.006;2022-10-16T17:39:12;20.60;99.90
1728;DHT22;861;48.808;9.006;2022-10-16T17:41:43;20.30;99.90
1728;DHT22;861;48.808;9.006;2022-10-16T17:44:11;20.20;99.90
1728;DHT22;861;48.808;9.006;2022-10-16T17:46:51;20.20;99.90
1728;DHT22;861;48.808;9.006;2022-10-16T17:49:19;20.30;99.90
1728;DHT22;861;48.808;9.006;2022-10-16T17:51:52;20.20;99.90
1728;DHT22;861;48.808;9.006;2022-10-16T17:54:19;20.10;99.90
1728;DHT22;861;48.808;9.006;2022-10-16T17:56:45;20.10;99.90
1728;DHT22;861;48.808;9.006;2022-10-16T17:59:13;20.80;99.90
1728;DHT22;861;48.808;9.006;2022-10-16T18:01:40;20.00;99.90
1728;DHT22;861;48.808;9.006;2022-10-16T18:04:14;19.80;99.90
1728;DHT22;861;48.808;9.006;2022-10-16T18:06:43;19.70;99.90
1728;DHT22;861;48.808;9.006;2022-10-16T18:09:14;19.80;99.90
1728;DHT22;861;48.808;9.006;2022-10-16T18:11:43;19.80;99.90
1728;DHT22;861;48.808;9.006;2022-10-16T18:14:15;19.70;99.90
1728;DHT22;861;48.808;9.006;2022-10-16T18:16:43;19.70;99.90
1728;DHT22;861;48.808;9.006;2022-10-16T18:19:11;19.60;99.90
1728;DHT22;861;48.808;9.006;2022-10-16T18:21:37;19.60;99.90
1728;DHT22;861;48.808;9.006;2022-10-16T18:24:04;19.40;99.90
1728;DHT22;861;48.808;9.006;2022-10-16T18:26:30;19.30;99.90
1728;DHT22;861;48.808;9.006;2022-10-16T18:28:57;18.70;99.90
1728;DHT22;861;48.808;9.006;2022-10-16T18:31:26;19.30;99.90
1728;DHT22;861;48.808;9.006;2022-10-16T18:33:55;19.30;99.90
1728;DHT22;861;48.808;9.006;2022-10-16T18:36:26;19.10;99.90
1728;DHT22;861;48.808;9.006;2022-10-16T18:38:57;19.00;99.90
1728;DHT22;861;48.808;9.006;2022-10-16T18:41:26;18.90;99.90
1728;DHT22;861;48.808;9.006;2022-10-16T18:43:53;18.80;99.90
1728;DHT22;861;48.808;9.006;2022-10-16T18:46:24;19.40;99.90
1728;DHT22;861;48.808;9.006;2022-10-16T18:48:51;19.60;99.90
1728;DHT22;861;48.808;9.006;2022-10-16T18:51:26;18.80;99.90
1728;DHT22;861;48.808;9.006;2022-10-16T18:54:07;18.80;99.90
1728;DHT22;861;48.808;9.006;2022-10-16T18:56:38;18.70;99.90
1728;DHT22;861;48.808;9.006;2022-10-16T18:59:07;18.50;99.90
1728;DHT22;861;48.808;9.006;2022-10-16T19:01:36;18.20;99.90
1728;DHT22;861;48.808;9.006;2022-10-16T19:04:11;18.40;99.90
1728;DHT22;861;48.808;9.006;2022-10-16T19:06:45;18.40;99.90
1728;DHT22;861;48.808;9.006;2022-10-16T19:09:16;18.60;99.90
1728;DHT22;861;48.808;9.006;2022-10-16T19:11:46;18.50;99.90
1728;DHT22;861;48.808;9.006;2022-10-16T19:14:16;18.50;99.90
1728;DHT22;861;48.808;9.006;2022-10-16T19:16:44;18.50;99.90
1728;DHT22;861;48.808;9.006;2022-10-16T19:19:16;18.30;99.90
1728;DHT22;861;48.808;9.006;2022-10-16T19:21:43;18.30;99.90
1728;DHT22;861;48.808;9.006;2022-10-16T19:24:14;18.10;99.90
1728;DHT22;861;48.808;9.006;2022-10-16T19:26:42;18.20;99.90
1728;DHT22;861;48.808;9.006;2022-10-16T19:29:09;18.20;99.90
1728;DHT22;861;48.808;9.006;2022-10-16T19:31:37;18.20;99.90
1728;DHT22;861;48.808;9.006;2022-10-16T19:34:05;18.20;99.90
1728;DHT22;861;48.808;9.006;2022-10-16T19:36:37;18.30;99.90
1728;DHT22;861;48.808;9.006;2022-10-16T19:39:12;18.30;99.90
1728;DHT22;861;48.808;9.006;2022-10-16T19:41:42;18.20;99.90
1728;DHT22;861;48.808;9.006;2022-10-16T19:44:14;18.30;99.90
1728;DHT22;861;48.808;9.006;2022-10-16T19:46:43;18.40;99.90
1728;DHT22;861;48.808;9.006;2022-10-16T19:49:13;18.30;99.90
1728;DHT22;861;48.808;9.006;2022-10-16T19:51:48;18.30;99.90
1728;DHT22;861;48.808;9.006;2022-10-16T19:54:19;17.40;99.90
1728;DHT22;861;48.808;9.006;2022-10-16T19:56:45;18.20;99.90
1728;DHT22;861;48.808;9.006;2022-10-16T19:59:12;18.00;99.90
1728;DHT22;861;48.808;9.006;2022-10-16T20:01:41;18.20;99.90
1728;DHT22;861;48.808;9.006;2022-10-16T20:04:08;18.00;99.90
1728;DHT22;861;48.808;9.006;2022-10-16T20:06:34;18.00;99.90
1728;DHT22;861;48.808;9.006;2022-10-16T20:09:00;18.00;99.90
1728;DHT22;861;48.808;9.006;2022-10-16T20:11:31;17.90;99.90
1728;DHT22;861;48.808;9.006;2022-10-16T20:14:01;17.80;99.90
1728;DHT22;861;48.808;9.006;2022-10-16T20:16:30;18.00;99.90
1728;DHT22;861;48.808;9.006;2022-10-16T20:18:57;18.00;99.90
1728;DHT22;861;48.808;9.006;2022-10-16T20:21:31;18.00;99.90
1728;DHT22;861;48.808;9.006;2022-10-16T20:24:01;18.00;99.90
1728;DHT22;861;48.808;9.006;2022-10-16T20:26:31;18.00;99.90
1728;DHT22;861;48.808;9.006;2022-10-16T20:28:58;18.60;99.90
1728;DHT22;861;48.808;9.006;2022-10-16T20:31:27;18.60;99.90
1728;DHT22;861;48.808;9.006;2022-10-16T20:36:29;17.50;99.90
1728;DHT22;861;48.808;9.006;2022-10-16T20:38:56;18.10;99.90
1728;DHT22;861;48.808;9.006;2022-10-16T20:41:22;18.00;99.90
1728;DHT22;861;48.808;9.006;2022-10-16T20:43:51;18.00;99.90
1728;DHT22;861;48.808;9.006;2022-10-16T20:46:22;18.10;99.90
1728;DHT22;861;48.808;9.006;2022-10-16T20:48:53;18.10;99.90
1728;DHT22;861;48.808;9.006;2022-10-16T20:51:26;18.00;99.90
1728;DHT22;861;48.808;9.006;2022-10-16T20:54:05;18.00;99.90
1728;DHT22;861;48.808;9.006;2022-10-16T20:56:35;18.20;99.90
1728;DHT22;861;48.808;9.006;2022-10-16T20:59:04;18.10;99.90
1728;DHT22;861;48.808;9.006;2022-10-16T21:01:31;18.50;99.90
1728;DHT22;861;48.808;9.006;2022-10-16T21:04:04;18.00;99.90
1728;DHT22;861;48.808;9.006;2022-10-16T21:06:37;18.00;99.90
1728;DHT22;861;48.808;9.006;2022-10-16T21:09:06;18.00;99.90
1728;DHT22;861;48.808;9.006;2022-10-16T21:11:36;18.10;99.90
1728;DHT22;861;48.808;9.006;2022-10-16T21:16:34;18.10;99.90
1728;DHT22;861;48.808;9.006;2022-10-16T21:19:01;17.60;99.90
1728;DHT22;861;48.808;9.006;2022-10-16T21:21:33;18.40;99.90
1728;DHT22;861;48.808;9.006;2022-10-16T21:24:04;18.00;99.90
1728;DHT22;861;48.808;9.006;2022-10-16T21:26:32;17.90;99.90
1728;DHT22;861;48.808;9.006;2022-10-16T21:29:05;17.90;99.90
1728;DHT22;861;48.808;9.006;2022-10-16T21:31:34;17.90;99.90
1728;DHT22;861;48.808;9.006;2022-10-16T21:34:01;17.90;99.90
1728;DHT22;861;48.808;9.006;2022-10-16T21:36:32;17.90;99.90
1728;DHT22;861;48.808;9.006;2022-10-16T21:39:05;17.80;99.90
1728;DHT22;861;48.808;9.006;2022-10-16T21:41:35;17.90;99.90
1728;DHT22;861;48.808;9.006;2022-10-16T21:46:35;17.90;99.90
1728;DHT22;861;48.808;9.006;2022-10-16T21:49:06;18.10;99.90
1728;DHT22;861;48.808;9.006;2022-10-16T21:51:46;17.90;99.90
1728;DHT22;861;48.808;9.006;2022-10-16T21:54:20;17.90;99.90
1728;DHT22;861;48.808;9.006;2022-10-16T21:56:48;18.00;99.90
1728;DHT22;861;48.808;9.006;2022-10-16T21:59:15;18.70;99.90
1728;DHT22;861;48.808;9.006;2022-10-16T22:04:11;17.60;99.90
1728;DHT22;861;48.808;9.006;2022-10-16T22:06:41;17.50;99.90
1728;DHT22;861;48.808;9.006;2022-10-16T22:09:12;17.40;99.90
1728;DHT22;861;48.808;9.006;2022-10-16T22:11:42;18.20;99.90
1728;DHT22;861;48.808;9.006;2022-10-16T22:14:14;17.60;99.90
1728;DHT22;861;48.808;9.006;2022-10-16T22:16:43;17.60;99.90
1728;DHT22;861;48.808;9.006;2022-10-16T22:19:13;17.60;99.90
1728;DHT22;861;48.808;9.006;2022-10-16T22:21:43;17.60;99.90
1728;DHT22;861;48.808;9.006;2022-10-16T22:24:16;17.60;99.90
1728;DHT22;861;48.808;9.006;2022-10-16T22:31:42;17.40;99.90
1728;DHT22;861;48.808;9.006;2022-10-16T22:34:12;17.20;99.90
1728;DHT22;861;48.808;9.006;2022-10-16T22:36:39;17.50;99.90
1728;DHT22;861;48.808;9.006;2022-10-16T22:39:05;17.60;99.90
1728;DHT22;861;48.808;9.006;2022-10-16T22:41:32;17.60;99.90
1728;DHT22;861;48.808;9.006;2022-10-16T22:43:58;17.60;99.90
1728;DHT22;861;48.808;9.006;2022-10-16T22:46:29;17.60;99.90
1728;DHT22;861;48.808;9.006;2022-10-16T22:48:57;17.50;99.90
1728;DHT22;861;48.808;9.006;2022-10-16T22:51:25;17.40;99.90
1728;DHT22;861;48.808;9.006;2022-10-16T22:53:52;17.40;99.90
1728;DHT22;861;48.808;9.006;2022-10-16T22:56:20;17.30;99.90
1728;DHT22;861;48.808;9.006;2022-10-16T22:58:47;17.30;99.90
1728;DHT22;861;48.808;9.006;2022-10-16T23:01:23;17.30;99.90
1728;DHT22;861;48.808;9.006;2022-10-16T23:04:00;17.90;99.90
1728;DHT22;861;48.808;9.006;2022-10-16T23:06:27;16.50;99.90
1728;DHT22;861;48.808;9.006;2022-10-16T23:11:27;17.00;99.90
1728;DHT22;861;48.808;9.006;2022-10-16T23:16:23;16.90;99.90
1728;DHT22;861;48.808;9.006;2022-10-16T23:18:50;17.10;99.90
1728;DHT22;861;48.808;9.006;2022-10-16T23:21:23;16.60;99.90
1728;DHT22;861;48.808;9.006;2022-10-16T23:23:54;17.00;99.90
1728;DHT22;861;48.808;9.006;2022-10-16T23:26:25;16.90;99.90
1728;DHT22;861;48.808;9.006;2022-10-16T23:28:55;16.90;99.90
1728;DHT22;861;48.808;9.006;2022-10-16T23:36:20;16.80;99.90
1728;DHT22;861;48.808;9.006;2022-10-16T23:40:51;16.40;99.90
1728;DHT22;861;48.808;9.006;2022-10-16T23:43:17;16.70;99.90
1728;DHT22;861;48.808;9.006;2022-10-16T23:48:11;16.70;99.90
1728;DHT22;861;48.808;9.006;2022-10-16T23:50:38;16.70;99.90
1728;DHT22;861;48.808;9.006;2022-10-16T23:53:04;18.20;99.90
1728;DHT22;861;48.808;9.006;2022-10-16T23:55:31;16.60;99.90
1728;DHT22;861;48.808;9.006;2022-10-16T23:57:57;17.30;99.90
